Time;durP1;ratioP1;P1;durP2;ratioP2;P2;SDS_P1;SDS_P2;PMS_P1;PMS_P2;Temp;Humidity;BMP_temperature;BMP_pressure;BME280_temperature;BME280_humidity;BME280_pressure;Samples;Min_cycle;Max_cycle;Signal;HPM_P1;HPM_P2
2022/09/19 00:01:58;;;;;;;2.03;1.00;;;16.00;60.00;;;;;;4917873;29;20991;-53
2022/09/19 00:04:29;;;;;;;2.10;0.70;;;16.00;60.00;;;;;;4935200;29;20468;-54
2022/09/19 00:06:59;;;;;;;2.10;1.03;;;16.00;60.00;;;;;;4918086;29;20456;-54
2022/09/19 00:09:31;;;;;;;1.53;0.80;;;16.00;60.00;;;;;;4918711;29;20464;-55
2022/09/19 00:12:00;;;;;;;2.00;1.63;;;16.00;60.00;;;;;;4909253;29;20551;-53
2022/09/19 00:14:30;;;;;;;2.30;1.23;;;16.00;60.00;;;;;;4917796;29;20990;-55
2022/09/19 00:17:01;;;;;;;2.70;0.93;;;16.00;60.00;;;;;;4919203;29;20787;-54
2022/09/19 00:19:30;;;;;;;1.20;0.93;;;15.90;59.90;;;;;;4918767;29;20539;-54
2022/09/19 00:22:02;;;;;;;2.13;1.10;;;15.90;60.00;;;;;;4922960;29;20459;-54
2022/09/19 00:24:49;;;;;;;3.17;0.97;;;15.90;60.00;;;;;;4917770;29;20539;-54
2022/09/19 00:27:21;;;;;;;2.50;1.50;;;15.90;60.00;;;;;;4908939;29;21011;-55
2022/09/19 00:29:51;;;;;;;0.90;0.80;;;16.00;60.00;;;;;;4918558;29;20436;-53
2022/09/19 00:32:21;;;;;;;2.13;0.90;;;15.90;59.90;;;;;;4918053;29;21031;-54
2022/09/19 00:34:54;;;;;;;3.50;1.10;;;15.90;60.00;;;;;;4900797;29;20535;-55
2022/09/19 00:37:25;;;;;;;2.73;1.37;;;15.90;60.00;;;;;;4918039;29;20471;-54
2022/09/19 00:39:54;;;;;;;2.63;1.23;;;15.90;60.00;;;;;;4923776;29;20478;-54
2022/09/19 00:42:25;;;;;;;1.00;0.80;;;15.90;60.00;;;;;;4915946;29;20629;-53
2022/09/19 00:45:00;;;;;;;2.10;1.10;;;15.90;59.90;;;;;;4918159;29;20467;-53
2022/09/19 00:47:38;;;;;;;1.03;0.80;;;15.90;60.00;;;;;;4917427;29;20989;-54
2022/09/19 00:50:19;;;;;;;2.93;1.10;;;15.90;60.00;;;;;;4917073;29;20448;-55
2022/09/19 00:52:52;;;;;;;1.53;0.80;;;15.90;59.90;;;;;;4933719;28;20476;-54
2022/09/19 00:55:20;;;;;;;1.33;0.90;;;15.90;59.90;;;;;;4918058;29;20987;-54
2022/09/19 00:58:01;;;;;;;2.73;1.10;;;15.90;59.90;;;;;;4915312;29;20480;-55
2022/09/19 01:00:31;;;;;;;3.80;1.07;;;15.90;59.90;;;;;;4911884;29;20448;-53
2022/09/19 01:02:59;;;;;;;3.07;1.77;;;15.90;59.90;;;;;;4916146;29;20827;-53
2022/09/19 01:05:41;;;;;;;5.80;1.63;;;15.90;59.90;;;;;;4920206;29;20527;-55
2022/09/19 01:08:24;;;;;;;3.70;1.23;;;15.90;60.00;;;;;;4917329;29;20984;-55
2022/09/19 01:11:13;;;;;;;2.60;1.00;;;15.80;59.90;;;;;;4916306;29;20455;-56
2022/09/19 01:13:50;;;;;;;3.20;1.30;;;15.80;59.90;;;;;;4922613;29;20806;-54
2022/09/19 01:16:24;;;;;;;1.53;1.20;;;15.80;59.90;;;;;;4917155;29;20901;-53
2022/09/19 01:19:05;;;;;;;2.83;1.10;;;15.80;59.90;;;;;;4917739;29;20464;-55
2022/09/19 01:21:40;;;;;;;3.50;1.43;;;15.80;59.90;;;;;;4916777;29;20444;-54
2022/09/19 01:24:49;;;;;;;1.37;1.00;;;15.80;59.80;;;;;;4917387;29;20528;-57
2022/09/19 01:27:33;;;;;;;1.97;0.97;;;15.80;59.90;;;;;;4902436;29;20484;-54
2022/09/19 01:30:06;;;;;;;2.80;1.33;;;15.80;59.90;;;;;;4917782;29;20502;-54
2022/09/19 01:32:51;;;;;;;2.13;1.07;;;15.80;59.90;;;;;;4900972;29;20472;-53
2022/09/19 01:35:24;;;;;;;3.10;0.90;;;15.80;59.80;;;;;;4915696;29;20923;-54
2022/09/19 01:38:00;;;;;;;4.80;1.50;;;15.80;59.80;;;;;;4916017;29;20479;-55
2022/09/19 01:40:30;;;;;;;1.43;0.97;;;15.80;59.90;;;;;;4925089;29;20483;-53
2022/09/19 01:43:05;;;;;;;1.57;0.90;;;15.80;59.90;;;;;;4909293;29;20476;-54
2022/09/19 01:45:38;;;;;;;2.17;1.07;;;15.80;59.80;;;;;;4901368;29;20465;-55
2022/09/19 01:48:17;;;;;;;1.07;0.70;;;15.80;59.90;;;;;;4926230;29;20518;-54
2022/09/19 01:51:17;;;;;;;1.70;0.80;;;15.80;59.80;;;;;;4912461;29;21015;-54
2022/09/19 01:54:00;;;;;;;4.67;1.30;;;15.80;59.80;;;;;;4922157;29;20482;-53
2022/09/19 01:56:49;;;;;;;2.87;1.23;;;15.80;59.80;;;;;;4912198;29;20818;-56
2022/09/19 01:59:32;;;;;;;3.63;1.50;;;15.80;59.90;;;;;;4915118;29;20485;-53
2022/09/19 02:02:12;;;;;;;3.23;1.33;;;15.80;59.90;;;;;;4931713;29;20842;-54
2022/09/19 02:04:49;;;;;;;2.90;1.17;;;15.80;59.80;;;;;;4916100;29;20481;-53
2022/09/19 02:07:27;;;;;;;2.30;1.20;;;15.80;59.80;;;;;;4912305;29;20540;-52
2022/09/19 02:10:01;;;;;;;3.70;1.20;;;15.80;59.90;;;;;;4931762;29;20847;-53
2022/09/19 02:12:37;;;;;;;3.73;1.43;;;15.80;59.80;;;;;;4911339;29;20472;-54
2022/09/19 02:15:18;;;;;;;1.63;1.27;;;15.80;59.80;;;;;;4909781;29;20483;-54
2022/09/19 02:17:55;;;;;;;3.30;1.23;;;15.80;59.90;;;;;;4915647;29;20475;-55
2022/09/19 02:20:27;;;;;;;2.20;0.90;;;15.80;59.80;;;;;;4914309;29;20542;-55
2022/09/19 02:23:02;;;;;;;1.70;1.10;;;15.80;59.80;;;;;;4915957;29;20471;-54
2022/09/19 02:25:34;;;;;;;2.23;1.00;;;15.80;61.10;;;;;;4915837;29;20539;-53
2022/09/19 02:28:08;;;;;;;3.87;1.50;;;15.80;59.90;;;;;;4915543;29;20480;-54
2022/09/19 02:30:38;;;;;;;2.73;1.13;;;15.80;59.80;;;;;;4915928;29;20467;-56
2022/09/19 02:33:09;;;;;;;2.40;1.50;;;15.80;59.80;;;;;;4915699;29;20472;-54
2022/09/19 02:35:45;;;;;;;2.03;0.93;;;15.80;59.90;;;;;;4903373;29;20491;-54
2022/09/19 02:38:22;;;;;;;1.67;1.13;;;15.80;59.90;;;;;;5009983;23;20568;-75
2022/09/19 02:41:01;;;;;;;7.93;1.50;;;15.80;59.90;;;;;;4894315;29;20441;-73
2022/09/19 02:43:38;;;;;;;1.37;1.00;;;15.70;59.70;;;;;;4897097;29;21000;-75
2022/09/19 02:46:10;;;;;;;3.53;1.47;;;15.70;59.80;;;;;;4892451;29;20552;-74
2022/09/19 02:48:50;;;;;;;5.10;1.03;;;15.70;59.70;;;;;;4886157;29;20445;-74
2022/09/19 02:51:25;;;;;;;1.80;0.80;;;15.80;59.80;;;;;;4891227;29;20470;-73
2022/09/19 02:54:01;;;;;;;2.30;1.00;;;15.70;59.70;;;;;;4892437;29;20821;-75
2022/09/19 02:56:34;;;;;;;1.77;1.00;;;15.70;59.80;;;;;;4881704;29;20475;-73
2022/09/19 02:59:06;;;;;;;2.43;0.90;;;15.70;59.70;;;;;;4883512;29;20449;-73
2022/09/19 03:01:49;;;;;;;5.03;1.20;;;15.70;59.70;;;;;;4877414;29;20481;-72
2022/09/19 03:04:23;;;;;;;2.20;1.20;;;15.70;59.80;;;;;;4882772;29;21018;-74
2022/09/19 03:07:01;;;;;;;3.13;1.10;;;15.70;59.70;;;;;;4871795;29;20454;-73
2022/09/19 03:09:32;;;;;;;3.67;1.50;;;15.70;59.80;;;;;;4881810;29;21055;-73
2022/09/19 03:12:18;;;;;;;2.53;1.30;;;15.70;59.80;;;;;;4886611;29;20993;-73
2022/09/19 03:14:57;;;;;;;1.17;0.87;;;15.70;59.70;;;;;;4899831;29;20575;-74
2022/09/19 03:17:34;;;;;;;1.90;1.03;;;15.70;59.80;;;;;;4875680;29;20570;-74
2022/09/19 03:20:04;;;;;;;3.30;1.20;;;15.70;59.80;;;;;;4887911;29;20461;-73
2022/09/19 03:22:41;;;;;;;1.77;1.00;;;15.70;59.70;;;;;;4893343;29;20489;-72
2022/09/19 03:25:11;;;;;;;3.80;1.10;;;15.70;59.70;;;;;;4887539;29;20478;-73
2022/09/19 03:27:40;;;;;;;2.50;0.90;;;15.70;59.80;;;;;;4882217;29;20477;-74
2022/09/19 03:30:12;;;;;;;2.10;1.00;;;15.70;59.80;;;;;;4888096;29;20526;-73
2022/09/19 03:32:46;;;;;;;2.20;0.70;;;15.60;59.70;;;;;;4877244;29;20834;-74
2022/09/19 03:35:17;;;;;;;1.77;1.60;;;15.70;59.80;;;;;;4871088;29;20474;-72
2022/09/19 03:37:47;;;;;;;1.63;1.10;;;15.70;59.80;;;;;;4898013;29;20549;-74
2022/09/19 03:40:16;;;;;;;1.90;1.13;;;15.70;59.70;;;;;;4888382;29;20453;-72
2022/09/19 03:42:45;;;;;;;1.67;1.13;;;15.70;59.70;;;;;;4880156;29;20476;-74
2022/09/19 03:45:14;;;;;;;1.60;0.80;;;15.70;59.70;;;;;;4859625;29;20465;-75
2022/09/19 03:47:44;;;;;;;3.17;1.37;;;15.70;59.70;;;;;;4888765;29;20462;-74
2022/09/19 03:50:12;;;;;;;2.50;1.17;;;15.70;59.80;;;;;;4873591;29;20453;-74
2022/09/19 03:52:58;;;;;;;1.57;1.10;;;15.70;59.80;;;;;;4874826;29;20473;-73
2022/09/19 03:55:26;;;;;;;4.90;1.20;;;15.70;59.70;;;;;;4860334;29;20901;-75
2022/09/19 03:57:55;;;;;;;2.63;1.17;;;15.60;59.70;;;;;;4877642;29;21100;-75
2022/09/19 04:00:24;;;;;;;1.17;0.80;;;15.70;59.80;;;;;;4886581;29;20451;-74
2022/09/19 04:02:56;;;;;;;1.70;1.10;;;15.60;59.70;;;;;;4882941;29;20467;-72
2022/09/19 04:05:24;;;;;;;2.40;1.27;;;15.70;59.70;;;;;;4873406;29;20469;-74
2022/09/19 04:07:54;;;;;;;2.00;1.10;;;15.60;59.70;;;;;;4881822;29;20528;-74
2022/09/19 04:10:24;;;;;;;2.20;0.90;;;15.60;59.70;;;;;;4880114;29;20821;-72
2022/09/19 04:12:52;;;;;;;1.03;0.70;;;15.60;59.70;;;;;;4850627;29;20974;-73
2022/09/19 04:15:21;;;;;;;2.03;1.17;;;15.60;59.70;;;;;;4888751;29;20532;-74
2022/09/19 04:17:49;;;;;;;1.97;1.00;;;15.60;59.70;;;;;;4893963;29;20470;-74
2022/09/19 04:20:19;;;;;;;2.67;1.10;;;15.60;59.70;;;;;;4873789;29;20465;-72
2022/09/19 04:23:00;;;;;;;1.40;1.10;;;15.60;59.70;;;;;;4893111;29;20521;-73
2022/09/19 04:25:50;;;;;;;2.00;1.27;;;15.60;59.70;;;;;;4876251;29;20477;-72
2022/09/19 04:28:32;;;;;;;2.23;1.07;;;15.60;59.70;;;;;;4894134;29;20808;-74
2022/09/19 04:31:00;;;;;;;1.83;0.80;;;15.60;59.70;;;;;;4903894;29;20547;-72
2022/09/19 04:33:31;;;;;;;1.87;0.90;;;15.60;60.00;;;;;;4879436;29;20877;-74
2022/09/19 04:36:00;;;;;;;2.20;1.00;;;15.60;59.70;;;;;;4892676;29;20470;-74
2022/09/19 04:38:32;;;;;;;5.17;1.23;;;15.60;59.70;;;;;;4882477;29;20942;-72
2022/09/19 04:41:02;;;;;;;4.90;1.30;;;15.60;59.70;;;;;;4858760;29;20487;-72
2022/09/19 04:43:32;;;;;;;1.03;0.77;;;15.60;59.70;;;;;;4873389;29;20534;-73
2022/09/19 04:46:25;;;;;;;2.90;1.40;;;15.60;59.70;;;;;;4877656;29;20992;-73
2022/09/19 04:49:00;;;;;;;2.20;1.20;;;15.60;59.70;;;;;;4887256;29;20449;-73
2022/09/19 04:51:33;;;;;;;1.63;1.10;;;15.60;59.70;;;;;;4869960;29;20484;-73
2022/09/19 04:54:02;;;;;;;1.57;0.77;;;15.60;59.70;;;;;;4885640;29;20450;-73
2022/09/19 04:56:32;;;;;;;2.63;1.37;;;15.60;59.70;;;;;;4883374;29;20485;-73
2022/09/19 04:59:01;;;;;;;3.10;1.13;;;15.60;60.90;;;;;;4877612;29;20444;-74
2022/09/19 05:01:30;;;;;;;3.30;1.87;;;15.60;59.70;;;;;;4878408;29;20449;-74
2022/09/19 05:03:59;;;;;;;2.50;1.20;;;15.60;59.70;;;;;;4876000;29;20956;-73
2022/09/19 05:06:28;;;;;;;2.80;1.23;;;15.60;59.70;;;;;;4899147;29;20477;-74
2022/09/19 05:08:58;;;;;;;3.03;1.33;;;15.50;59.60;;;;;;4888807;29;20469;-73
2022/09/19 05:11:40;;;;;;;3.10;1.10;;;15.50;59.50;;;;;;4887550;29;20946;-73
2022/09/19 05:14:09;;;;;;;1.97;1.17;;;15.50;59.60;;;;;;4876081;29;20440;-74
2022/09/19 05:16:43;;;;;;;1.23;1.00;;;15.50;59.60;;;;;;4888412;29;20489;-72
2022/09/19 05:19:12;;;;;;;3.23;1.00;;;15.50;59.50;;;;;;4881149;29;20892;-73
2022/09/19 05:21:42;;;;;;;2.60;0.97;;;15.50;59.60;;;;;;4893036;29;20450;-74
2022/09/19 05:24:10;;;;;;;5.30;1.40;;;15.50;59.60;;;;;;4866255;29;20442;-74
2022/09/19 05:26:40;;;;;;;3.07;0.97;;;15.50;59.50;;;;;;4884631;29;20540;-73
2022/09/19 05:29:15;;;;;;;3.90;1.40;;;15.50;59.60;;;;;;4879508;29;20499;-75
2022/09/19 05:32:03;;;;;;;2.07;0.90;;;15.50;59.60;;;;;;4878183;29;20469;-75
2022/09/19 05:34:48;;;;;;;2.83;1.20;;;15.50;59.60;;;;;;4891581;29;20470;-74
2022/09/19 05:37:40;;;;;;;1.63;0.80;;;15.50;59.60;;;;;;4876825;29;20581;-72
2022/09/19 05:40:31;;;;;;;2.90;0.97;;;15.50;59.60;;;;;;4888988;29;20496;-73
2022/09/19 05:43:11;;;;;;;3.10;1.30;;;15.50;60.80;;;;;;4887531;29;20469;-74
2022/09/19 05:45:41;;;;;;;1.53;0.83;;;15.50;59.50;;;;;;4874038;29;20843;-73
2022/09/19 05:48:10;;;;;;;2.20;1.20;;;15.50;59.50;;;;;;4877431;29;20478;-73
2022/09/19 05:50:39;;;;;;;1.20;1.10;;;15.50;59.60;;;;;;4893572;29;20512;-73
2022/09/19 05:56:01;;;;;;;5.70;0.97;;;15.50;59.60;;;;;;4899459;29;20496;-73
2022/09/19 05:58:39;;;;;;;3.00;1.40;;;15.50;59.50;;;;;;4890164;29;20958;-73
2022/09/19 06:01:10;;;;;;;1.60;1.10;;;15.40;60.70;;;;;;4885737;29;20433;-73
2022/09/19 06:03:40;;;;;;;2.40;1.40;;;15.40;59.40;;;;;;4888752;29;20463;-73
2022/09/19 06:06:18;;;;;;;4.13;1.10;;;15.40;60.70;;;;;;4877214;29;20552;-72
2022/09/19 06:08:55;;;;;;;2.00;0.97;;;15.40;59.40;;;;;;4866496;29;20513;-73
2022/09/19 06:11:27;;;;;;;3.37;1.23;;;15.40;59.40;;;;;;4886054;29;20474;-72
2022/09/19 06:14:15;;;;;;;3.43;1.13;;;15.40;59.50;;;;;;4901761;29;20449;-73
2022/09/19 06:16:46;;;;;;;2.30;1.20;;;15.40;59.50;;;;;;4891397;29;20480;-69
2022/09/19 06:19:50;;;;;;;3.10;1.20;;;15.40;59.40;;;;;;4883133;29;20465;-73
2022/09/19 06:22:29;;;;;;;4.10;1.53;;;15.40;59.40;;;;;;4892428;29;20473;-73
2022/09/19 06:24:59;;;;;;;2.67;1.50;;;15.40;59.40;;;;;;4883353;29;20474;-67
2022/09/19 06:27:29;;;;;;;3.00;1.50;;;15.40;59.50;;;;;;4868063;29;20509;-67
2022/09/19 06:30:01;;;;;;;1.90;1.30;;;15.40;59.40;;;;;;4876925;29;20971;-67
2022/09/19 06:32:39;;;;;;;2.63;1.47;;;15.40;59.40;;;;;;4883747;29;20472;-68
2022/09/19 06:35:17;;;;;;;1.50;1.10;;;15.40;59.40;;;;;;4869553;29;20481;-68
2022/09/19 06:37:47;;;;;;;3.33;1.13;;;15.40;59.40;;;;;;4882036;29;20492;-67
2022/09/19 06:40:20;;;;;;;3.73;1.43;;;15.40;59.50;;;;;;4885528;29;20481;-67
2022/09/19 06:43:01;;;;;;;2.60;1.37;;;15.40;59.50;;;;;;4895395;29;20545;-73
2022/09/19 06:45:56;;;;;;;4.23;1.57;;;15.40;59.40;;;;;;4877815;29;20584;-73
2022/09/19 06:48:48;;;;;;;3.53;1.40;;;15.40;59.50;;;;;;4877482;29;20543;-72
2022/09/19 06:51:32;;;;;;;4.30;1.57;;;15.40;59.60;;;;;;4878882;29;20771;-74
2022/09/19 06:54:01;;;;;;;2.50;1.40;;;15.40;59.50;;;;;;4876397;29;21348;-73
2022/09/19 06:56:29;;;;;;;2.17;1.50;;;15.40;59.50;;;;;;4867808;29;20495;-72
2022/09/19 06:58:58;;;;;;;3.87;1.73;;;15.40;59.50;;;;;;4892824;29;20809;-72
2022/09/19 07:01:29;;;;;;;2.40;1.60;;;15.40;59.50;;;;;;4870728;29;20525;-72
2022/09/19 07:03:57;;;;;;;2.33;1.27;;;15.30;59.70;;;;;;4886220;29;20446;-66
2022/09/19 07:06:40;;;;;;;2.70;1.50;;;15.30;59.90;;;;;;4871118;29;20484;-66
2022/09/19 07:09:14;;;;;;;3.30;1.60;;;15.40;59.60;;;;;;4877751;29;20489;-67
2022/09/19 07:11:46;;;;;;;4.57;2.07;;;15.30;59.80;;;;;;4876662;29;20861;-68
2022/09/19 07:14:19;;;;;;;5.70;2.33;;;15.30;60.00;;;;;;4875793;29;20972;-66
2022/09/19 07:16:50;;;;;;;4.20;1.83;;;15.30;60.10;;;;;;4876375;29;20557;-67
2022/09/19 07:19:19;;;;;;;4.10;2.33;;;15.30;60.00;;;;;;4882008;29;20794;-69
2022/09/19 07:22:06;;;;;;;2.40;1.40;;;15.30;60.00;;;;;;4883707;29;20480;-68
2022/09/19 07:25:01;;;;;;;5.65;2.70;;;15.30;59.60;;;;;;4875840;29;20956;-67
2022/09/19 07:27:32;;;;;;;4.70;2.13;;;15.30;60.20;;;;;;4872323;29;20643;-67
2022/09/19 07:30:01;;;;;;;3.20;2.00;;;15.30;60.20;;;;;;4892936;29;20496;-67
2022/09/19 07:32:32;;;;;;;2.67;1.50;;;15.30;60.10;;;;;;4875689;29;20677;-67
2022/09/19 07:35:01;;;;;;;3.90;1.87;;;15.30;60.00;;;;;;4873483;29;20877;-68
2022/09/19 07:37:29;;;;;;;3.63;1.83;;;15.30;60.30;;;;;;4875829;29;20477;-65
2022/09/19 07:40:18;;;;;;;3.67;1.57;;;15.30;60.40;;;;;;4893045;29;20489;-67
2022/09/19 07:43:01;;;;;;;4.30;1.30;;;15.30;60.30;;;;;;4867896;29;20489;-67
2022/09/19 07:45:54;;;;;;;3.87;2.07;;;15.30;60.30;;;;;;4892164;29;20498;-66
2022/09/19 07:48:53;;;;;;;3.47;1.60;;;15.30;60.40;;;;;;4871604;29;20458;-66
2022/09/19 07:51:35;;;;;;;2.50;1.63;;;15.30;60.50;;;;;;4894145;29;20778;-65
2022/09/19 07:54:07;;;;;;;4.73;2.00;;;15.30;60.40;;;;;;4896409;29;20530;-66
2022/09/19 07:56:36;;;;;;;3.43;1.40;;;15.30;60.30;;;;;;4889114;29;20481;-66
2022/09/19 07:59:04;;;;;;;4.33;1.83;;;15.30;60.20;;;;;;4890978;29;20445;-66
2022/09/19 08:01:51;;;;;;;2.87;1.40;;;15.30;60.40;;;;;;4879502;29;20495;-66
2022/09/19 08:04:37;;;;;;;5.67;1.87;;;15.30;60.50;;;;;;4869417;29;20477;-66
2022/09/19 08:07:07;;;;;;;4.03;1.57;;;15.30;60.60;;;;;;4882649;29;20468;-66
2022/09/19 08:09:38;;;;;;;3.13;1.20;;;15.30;60.70;;;;;;4874894;29;20510;-68
2022/09/19 08:12:14;;;;;;;2.40;1.37;;;15.30;60.60;;;;;;4877646;29;20486;-66
2022/09/19 08:14:53;;;;;;;3.67;1.30;;;15.30;60.60;;;;;;4869479;29;20505;-66
2022/09/19 08:17:22;;;;;;;5.27;1.40;;;15.30;60.50;;;;;;4889593;29;21172;-67
2022/09/19 08:19:54;;;;;;;4.60;1.90;;;15.30;60.70;;;;;;4855447;29;20571;-67
2022/09/19 08:22:24;;;;;;;3.20;2.27;;;15.30;60.90;;;;;;4872356;29;20576;-67
2022/09/19 08:24:59;;;;;;;4.80;1.50;;;15.30;61.20;;;;;;4887727;29;20492;-67
2022/09/19 08:27:28;;;;;;;2.27;1.20;;;15.30;60.90;;;;;;4891214;29;20487;-69
2022/09/19 08:29:59;;;;;;;3.07;1.43;;;15.30;61.00;;;;;;4868398;29;20536;-67
2022/09/19 08:32:28;;;;;;;4.40;1.87;;;15.30;61.10;;;;;;4898256;29;20833;-66
2022/09/19 08:34:59;;;;;;;5.40;1.40;;;15.30;61.10;;;;;;4892283;29;20499;-65
2022/09/19 08:37:28;;;;;;;4.30;1.73;;;15.30;61.20;;;;;;4923140;23;20457;-68
2022/09/19 08:42:58;;;;;;;4.70;1.97;;;15.20;61.50;;;;;;4923027;29;20834;-69
2022/09/19 08:45:47;;;;;;;2.27;1.50;;;15.20;61.40;;;;;;4923818;29;20476;-69
2022/09/19 08:48:21;;;;;;;3.07;2.10;;;15.20;61.50;;;;;;4905495;29;20475;-69
2022/09/19 08:50:58;;;;;;;3.90;1.77;;;15.20;61.30;;;;;;4901154;29;20511;-69
2022/09/19 08:53:32;;;;;;;4.03;1.53;;;15.20;61.30;;;;;;4905089;29;20567;-69
2022/09/19 08:56:04;;;;;;;3.50;1.70;;;15.20;63.20;;;;;;4910394;29;20551;-69
2022/09/19 08:58:36;;;;;;;4.70;2.10;;;15.20;62.90;;;;;;4914170;29;20475;-70
2022/09/19 09:01:17;;;;;;;3.50;1.70;;;15.20;62.90;;;;;;4926343;29;20962;-69
2022/09/19 09:04:26;;;;;;;3.27;1.57;;;15.20;62.70;;;;;;4905242;29;20459;-69
2022/09/19 09:07:09;;;;;;;3.30;1.00;;;15.20;63.80;;;;;;4902034;29;20478;-69
2022/09/19 09:10:01;;;;;;;2.53;1.03;;;15.20;62.50;;;;;;4917364;29;20944;-71
2022/09/19 09:12:41;;;;;;;6.50;2.00;;;15.20;62.10;;;;;;4895010;29;20479;-71
2022/09/19 09:15:21;;;;;;;8.03;1.77;;;15.20;62.60;;;;;;4919320;29;20469;-69
2022/09/19 09:18:31;;;;;;;7.90;1.97;;;15.30;63.00;;;;;;4898073;29;20471;-69
2022/09/19 09:21:04;;;;;;;4.47;1.70;;;15.30;62.80;;;;;;4895908;29;20452;-69
2022/09/19 09:23:37;;;;;;;4.83;1.80;;;15.30;63.10;;;;;;4900667;29;20811;-69
2022/09/19 09:26:44;;;;;;;2.93;1.53;;;15.30;63.10;;;;;;4895436;29;20841;-69
2022/09/19 09:29:25;;;;;;;2.90;1.20;;;15.20;63.10;;;;;;4912760;29;20734;-69
2022/09/19 09:32:09;;;;;;;5.70;1.87;;;15.20;63.10;;;;;;4912077;29;20480;-69
2022/09/19 09:34:53;;;;;;;6.33;1.60;;;15.20;63.00;;;;;;4891890;29;20483;-69
2022/09/19 09:37:27;;;;;;;6.57;1.23;;;15.20;63.10;;;;;;4917417;29;21078;-69
2022/09/19 09:40:13;;;;;;;3.93;1.70;;;15.20;63.30;;;;;;4904137;29;20806;-69
2022/09/19 09:42:52;;;;;;;3.43;1.93;;;15.20;63.10;;;;;;4896977;29;20499;-70
2022/09/19 09:45:32;;;;;;;2.20;1.27;;;15.20;63.00;;;;;;4904314;29;20935;-69
2022/09/19 09:48:09;;;;;;;4.40;2.53;;;15.20;63.10;;;;;;4919259;29;20476;-69
2022/09/19 09:50:50;;;;;;;3.67;1.43;;;15.20;63.00;;;;;;4906037;29;20516;-69
2022/09/19 09:53:30;;;;;;;2.10;1.40;;;15.30;62.90;;;;;;4876440;29;20473;-69
2022/09/19 09:56:14;;;;;;;3.33;1.50;;;15.30;63.00;;;;;;4910371;29;20579;-69
2022/09/19 09:58:56;;;;;;;4.13;1.40;;;15.30;62.60;;;;;;4898458;29;20464;-69
2022/09/19 10:04:30;;;;;;;3.73;1.47;;;15.30;62.80;;;;;;4881972;29;20482;-69
2022/09/19 10:07:26;;;;;;;3.80;1.60;;;15.30;62.60;;;;;;4905899;29;20838;-69
2022/09/19 10:09:59;;;;;;;2.63;1.53;;;15.30;62.80;;;;;;4896111;29;20437;-69
2022/09/19 10:12:37;;;;;;;4.17;2.20;;;15.30;62.80;;;;;;4913629;29;20507;-69
2022/09/19 10:15:21;;;;;;;5.20;1.10;;;15.30;62.80;;;;;;4896180;29;20469;-69
2022/09/19 10:17:59;;;;;;;1.97;0.97;;;15.30;63.00;;;;;;4928511;28;20558;-69
2022/09/19 10:20:40;;;;;;;4.00;1.60;;;15.30;62.80;;;;;;4902890;29;20483;-69
2022/09/19 10:23:15;;;;;;;2.80;1.43;;;15.30;62.90;;;;;;4918460;28;20521;-69
2022/09/19 10:25:49;;;;;;;5.10;1.53;;;15.30;62.70;;;;;;4907579;29;20468;-69
2022/09/19 10:28:32;;;;;;;5.40;2.20;;;15.30;62.90;;;;;;4903142;29;20882;-69
2022/09/19 10:31:23;;;;;;;4.37;1.23;;;15.30;62.80;;;;;;4897526;29;20555;-69
2022/09/19 10:34:04;;;;;;;3.90;1.73;;;15.40;62.90;;;;;;4903728;29;20440;-69
2022/09/19 10:36:34;;;;;;;3.60;1.40;;;15.30;62.90;;;;;;4916734;29;20482;-69
2022/09/19 10:39:11;;;;;;;2.97;1.37;;;15.40;63.00;;;;;;4889801;29;20576;-69
2022/09/19 10:41:42;;;;;;;4.70;1.60;;;15.30;62.70;;;;;;4894361;29;20448;-69
2022/09/19 10:44:19;;;;;;;4.90;1.80;;;15.40;62.80;;;;;;4902164;29;21009;-69
2022/09/19 10:46:52;;;;;;;2.60;1.40;;;15.30;62.60;;;;;;4910296;29;20479;-69
2022/09/19 10:50:02;;;;;;;3.57;1.23;;;15.30;62.60;;;;;;4902356;29;20495;-69
2022/09/19 10:52:51;;;;;;;3.10;1.27;;;15.30;62.60;;;;;;4910118;29;20476;-69
2022/09/19 10:55:23;;;;;;;2.90;1.50;;;15.30;62.60;;;;;;4903267;29;20468;-69
2022/09/19 10:58:03;;;;;;;3.23;1.13;;;15.40;62.70;;;;;;4917758;29;20472;-69
2022/09/19 11:00:51;;;;;;;3.37;1.20;;;15.40;62.70;;;;;;4903548;29;20437;-69
2022/09/19 11:03:23;;;;;;;4.27;1.07;;;15.40;62.60;;;;;;4896829;29;20464;-69
2022/09/19 11:06:06;;;;;;;3.80;0.80;;;15.30;62.60;;;;;;4918895;29;20477;-69
2022/09/19 11:08:43;;;;;;;1.13;0.70;;;15.30;62.70;;;;;;4906965;29;20453;-69
2022/09/19 11:11:37;;;;;;;2.53;1.20;;;15.40;62.90;;;;;;4894698;29;20480;-69
2022/09/19 11:14:32;;;;;;;1.57;0.70;;;15.40;62.70;;;;;;4896705;29;20448;-69
2022/09/19 11:17:33;;;;;;;3.53;0.93;;;15.40;62.90;;;;;;4918125;29;20482;-69
2022/09/19 11:20:32;;;;;;;2.73;0.93;;;15.40;62.80;;;;;;4902579;29;20598;-69
2022/09/19 11:23:50;;;;;;;3.80;1.37;;;15.40;62.80;;;;;;4888501;29;20460;-69
2022/09/19 11:26:29;;;;;;;5.97;1.80;;;15.40;62.80;;;;;;4887266;29;20500;-69
2022/09/19 11:29:19;;;;;;;2.60;1.10;;;15.40;62.90;;;;;;4902442;29;20437;-69
2022/09/19 11:32:03;;;;;;;4.30;0.97;;;15.40;62.90;;;;;;4894410;29;20552;-69
2022/09/19 11:35:03;;;;;;;2.40;1.20;;;15.40;63.00;;;;;;4891865;29;20472;-69
2022/09/19 11:37:55;;;;;;;2.83;1.20;;;15.40;62.90;;;;;;4894492;29;20519;-69
2022/09/19 11:40:40;;;;;;;2.53;1.20;;;15.40;63.10;;;;;;4902568;29;20476;-69
2022/09/19 11:43:30;;;;;;;2.53;1.13;;;15.40;63.00;;;;;;4883132;29;20992;-69
2022/09/19 11:46:10;;;;;;;5.20;1.13;;;15.40;63.00;;;;;;4902588;29;21023;-69
2022/09/19 11:49:27;;;;;;;1.93;1.57;;;15.40;62.90;;;;;;4894951;29;20492;-69
2022/09/19 11:52:08;;;;;;;2.70;1.30;;;15.40;62.80;;;;;;4916979;29;20548;-69
2022/09/19 11:54:52;;;;;;;2.20;1.20;;;15.40;62.90;;;;;;4899129;29;20473;-69
2022/09/19 11:57:39;;;;;;;3.60;1.30;;;15.40;62.80;;;;;;4869832;29;20469;-69
2022/09/19 12:00:16;;;;;;;4.70;1.23;;;15.40;62.90;;;;;;4904972;29;20482;-69
2022/09/19 12:02:58;;;;;;;3.07;0.77;;;15.40;62.90;;;;;;4911030;28;20478;-69
2022/09/19 12:05:45;;;;;;;3.63;1.00;;;15.40;62.60;;;;;;4894464;29;20487;-69
2022/09/19 12:08:28;;;;;;;3.17;1.40;;;15.40;62.70;;;;;;4888291;29;20556;-69
2022/09/19 12:11:05;;;;;;;3.20;1.63;;;15.40;62.80;;;;;;4901606;29;20462;-69
2022/09/19 12:13:42;;;;;;;2.53;1.20;;;15.40;62.70;;;;;;4895021;29;20515;-69
2022/09/19 12:16:20;;;;;;;2.80;1.13;;;15.40;62.80;;;;;;4895179;29;20613;-69
2022/09/19 12:19:04;;;;;;;1.67;1.00;;;15.40;62.30;;;;;;4910596;29;20499;-69
2022/09/19 12:21:39;;;;;;;3.23;1.00;;;15.40;62.00;;;;;;4887230;29;20488;-69
2022/09/19 12:27:06;;;;;;;3.17;1.00;;;15.40;61.60;;;;;;4907607;29;20485;-69
2022/09/19 12:29:39;;;;;;;3.70;1.10;;;15.40;61.50;;;;;;4895287;29;20439;-69
2022/09/19 12:32:14;;;;;;;2.10;0.87;;;15.40;61.60;;;;;;4891589;29;20481;-69
2022/09/19 12:34:50;;;;;;;3.43;1.57;;;15.40;61.60;;;;;;4890733;29;20852;-69
2022/09/19 12:37:30;;;;;;;4.73;1.30;;;15.40;61.50;;;;;;4910990;29;20507;-69
2022/09/19 12:40:07;;;;;;;1.70;0.90;;;15.40;61.60;;;;;;4908381;29;20869;-69
2022/09/19 12:42:44;;;;;;;1.50;1.20;;;15.40;61.30;;;;;;4911218;29;20469;-69
2022/09/19 12:45:19;;;;;;;1.57;0.90;;;15.40;61.30;;;;;;4903731;29;20860;-69
2022/09/19 12:48:00;;;;;;;4.37;1.23;;;15.40;61.50;;;;;;4925388;28;20577;-69
2022/09/19 12:50:53;;;;;;;1.93;1.13;;;15.40;61.40;;;;;;4913964;29;20440;-69
2022/09/19 12:53:31;;;;;;;5.70;1.30;;;15.40;61.30;;;;;;4910608;29;20488;-69
2022/09/19 12:56:07;;;;;;;4.10;1.57;;;15.40;61.30;;;;;;4927963;29;20469;-69
2022/09/19 12:58:45;;;;;;;5.87;1.43;;;15.40;61.10;;;;;;4909828;29;20441;-69
2022/09/19 13:01:22;;;;;;;5.17;1.23;;;15.40;61.00;;;;;;4906979;29;20477;-69
2022/09/19 13:03:58;;;;;;;2.77;1.13;;;15.40;60.80;;;;;;4903642;29;20446;-69
2022/09/19 13:06:31;;;;;;;2.70;1.03;;;15.50;61.00;;;;;;4904356;29;20902;-72
2022/09/19 13:09:04;;;;;;;2.77;1.00;;;15.50;60.90;;;;;;4922358;29;20441;-72
2022/09/19 13:11:39;;;;;;;5.23;1.47;;;15.50;60.80;;;;;;4908276;29;21072;-72
2022/09/19 13:14:14;;;;;;;3.77;1.43;;;15.50;59.60;;;;;;4894357;29;20437;-72
2022/09/19 13:25:14;;;;;;;1.80;0.90;;;15.50;60.90;;;;;;4895834;29;20504;-72
2022/09/19 13:27:46;;;;;;;4.63;1.23;;;15.50;61.20;;;;;;4907801;29;20536;-72
2022/09/19 13:30:48;;;;;;;2.00;1.00;;;15.50;61.20;;;;;;4899454;29;20493;-72
2022/09/19 13:33:27;;;;;;;3.07;1.00;;;15.50;61.30;;;;;;4892781;29;20522;-72
2022/09/19 13:36:06;;;;;;;2.10;0.93;;;15.50;61.60;;;;;;4910883;29;20478;-72
2022/09/19 13:38:38;;;;;;;1.73;0.90;;;15.50;61.70;;;;;;4896829;29;20576;-72
2022/09/19 13:41:09;;;;;;;3.33;0.83;;;15.50;61.70;;;;;;4889298;29;20520;-72
2022/09/19 13:44:10;;;;;;;3.43;0.93;;;15.50;61.90;;;;;;4896412;29;20448;-72
2022/09/19 13:46:46;;;;;;;3.43;0.80;;;15.50;61.90;;;;;;4899967;29;21064;-72
2022/09/19 13:49:31;;;;;;;2.60;1.33;;;15.50;62.20;;;;;;4895048;29;20497;-72
2022/09/19 13:52:03;;;;;;;3.27;1.17;;;15.50;62.10;;;;;;4910611;29;20811;-72
2022/09/19 13:54:44;;;;;;;1.53;0.90;;;15.50;62.40;;;;;;4901716;29;20482;-72
2022/09/19 13:57:18;;;;;;;2.13;0.60;;;15.40;62.30;;;;;;4899930;29;21011;-72
2022/09/19 13:59:53;;;;;;;0.93;0.63;;;15.50;62.20;;;;;;4921015;29;20511;-72
2022/09/19 14:02:27;;;;;;;2.30;0.70;;;15.50;62.70;;;;;;4897030;29;20499;-72